LPE0021 SPPY-SPST
Flight info
| Callsign | LPE0021 |
|---|---|
| Flight time | 0h 28m |
| Altitude | 17000 |
| Route | ISRES DCT D247O DCT CL35 |
| Aircraft | A20N/M-SDE2E3FGHIRWXY/LB1 |
Departure
| Time | 2026-05-04 15:47 |
|---|---|
| Airport | Chachapoyas Airport (SPPY) |
Arrival
| Time | 2026-05-04 16:15 |
|---|---|
| Airport | Cadete FAP Guillermo Del Castillo Paredes Airport (SPST) |
| Time | Latitude | Longitude | Altitude | Speed | Heading |
|---|---|---|---|---|---|
| 2026-05-04 15:18 | -6.20675 | -77.85301 | 8298 ft | 0 kts | 357° |
| 2026-05-04 15:38 | -6.20672 | -77.85301 | 8298 ft | 0 kts | 10° |
| 2026-05-04 15:38 | -6.20669 | -77.85299 | 8298 ft | 0 kts | 40° |
| 2026-05-04 15:39 | -6.20668 | -77.85297 | 8298 ft | 0 kts | 48° |
| 2026-05-04 15:40 | -6.20663 | -77.85289 | 8298 ft | 10 kts | 64° |
| 2026-05-04 15:40 | -6.20622 | -77.85232 | 8299 ft | 8 kts | 43° |
| 2026-05-04 15:40 | -6.20570 | -77.85208 | 8299 ft | 8 kts | 348° |
| 2026-05-04 15:40 | -6.20519 | -77.85254 | 8297 ft | 11 kts | 311° |
| 2026-05-04 15:41 | -6.20461 | -77.85320 | 8295 ft | 13 kts | 312° |
| 2026-05-04 15:41 | -6.20393 | -77.85394 | 8293 ft | 15 kts | 313° |
| 2026-05-04 15:41 | -6.20316 | -77.85475 | 8291 ft | 16 kts | 313° |
| 2026-05-04 15:41 | -6.20238 | -77.85563 | 8290 ft | 17 kts | 311° |
| 2026-05-04 15:42 | -6.20158 | -77.85653 | 8290 ft | 17 kts | 312° |
| 2026-05-04 15:42 | -6.20074 | -77.85743 | 8289 ft | 17 kts | 313° |
| 2026-05-04 15:42 | -6.19993 | -77.85832 | 8289 ft | 17 kts | 311° |
| 2026-05-04 15:42 | -6.19914 | -77.85920 | 8289 ft | 17 kts | 312° |
| 2026-05-04 15:43 | -6.19833 | -77.86008 | 8288 ft | 17 kts | 313° |
| 2026-05-04 15:43 | -6.19752 | -77.86098 | 8287 ft | 17 kts | 312° |
| 2026-05-04 15:43 | -6.19668 | -77.86190 | 8285 ft | 17 kts | 311° |
| 2026-05-04 15:43 | -6.19637 | -77.86262 | 8284 ft | 9 kts | 326° |
| 2026-05-04 15:44 | -6.19623 | -77.86257 | 8284 ft | 0 kts | 121° |
| 2026-05-04 15:44 | -6.19623 | -77.86256 | 8284 ft | 0 kts | 110° |
| 2026-05-04 15:44 | -6.19625 | -77.86250 | 8284 ft | 1 kts | 105° |
| 2026-05-04 15:44 | -6.19627 | -77.86242 | 8284 ft | 1 kts | 112° |
| 2026-05-04 15:45 | -6.19629 | -77.86238 | 8285 ft | 0 kts | 114° |
| 2026-05-04 15:45 | -6.19631 | -77.86234 | 8285 ft | 0 kts | 118° |
| 2026-05-04 15:45 | -6.19632 | -77.86234 | 8285 ft | 0 kts | 124° |
| 2026-05-04 15:46 | -6.19824 | -77.86018 | 8289 ft | 82 kts | 132° |
| 2026-05-04 15:46 | -6.20378 | -77.85406 | 8294 ft | 149 kts | 136° |
| 2026-05-04 15:46 | -6.21162 | -77.84608 | 8689 ft | 168 kts | 130° |
| 2026-05-04 15:47 | -6.21913 | -77.83651 | 9285 ft | 183 kts | 123° |
| 2026-05-04 15:47 | -6.22558 | -77.82531 | 9883 ft | 189 kts | 115° |
| 2026-05-04 15:47 | -6.23163 | -77.81316 | 10343 ft | 201 kts | 121° |
| 2026-05-04 15:47 | -6.24035 | -77.80145 | 10745 ft | 218 kts | 129° |
| 2026-05-04 15:48 | -6.25052 | -77.78944 | 11168 ft | 235 kts | 128° |
| 2026-05-04 15:48 | -6.26112 | -77.77624 | 11572 ft | 252 kts | 127° |
| 2026-05-04 15:48 | -6.28348 | -77.74625 | 12318 ft | 287 kts | 125° |
| 2026-05-04 15:49 | -6.29553 | -77.72943 | 12676 ft | 304 kts | 125° |
| 2026-05-04 15:49 | -6.30807 | -77.71172 | 12990 ft | 322 kts | 124° |
| 2026-05-04 15:49 | -6.32152 | -77.69260 | 13283 ft | 340 kts | 124° |
| 2026-05-04 15:49 | -6.33533 | -77.67291 | 13542 ft | 356 kts | 124° |
| 2026-05-04 15:50 | -6.34989 | -77.65211 | 13923 ft | 367 kts | 124° |
| 2026-05-04 15:50 | -6.36466 | -77.63098 | 14498 ft | 371 kts | 124° |
| 2026-05-04 15:50 | -6.37947 | -77.60976 | 15060 ft | 374 kts | 123° |
| 2026-05-04 15:50 | -6.39440 | -77.58835 | 15622 ft | 378 kts | 123° |
| 2026-05-04 15:51 | -6.40954 | -77.56661 | 16150 ft | 381 kts | 123° |
| 2026-05-04 15:51 | -6.42484 | -77.54464 | 16668 ft | 385 kts | 123° |
| 2026-05-04 15:51 | -6.44027 | -77.52248 | 17129 ft | 388 kts | 123° |
| 2026-05-04 15:51 | -6.45563 | -77.50037 | 17346 ft | 390 kts | 123° |
| 2026-05-04 15:52 | -6.47115 | -77.47805 | 17344 ft | 390 kts | 123° |
| 2026-05-04 15:52 | -6.48680 | -77.45553 | 17340 ft | 390 kts | 123° |
| 2026-05-04 15:52 | -6.50230 | -77.43321 | 17321 ft | 390 kts | 123° |
| 2026-05-04 15:52 | -6.51773 | -77.41102 | 17320 ft | 390 kts | 123° |
| 2026-05-04 15:53 | -6.53339 | -77.38850 | 17300 ft | 390 kts | 123° |
| 2026-05-04 15:53 | -6.54881 | -77.36632 | 17301 ft | 390 kts | 123° |
| 2026-05-04 15:53 | -6.56445 | -77.34379 | 17260 ft | 390 kts | 123° |
| 2026-05-04 15:53 | -6.57999 | -77.32143 | 17272 ft | 390 kts | 123° |
| 2026-05-04 15:54 | -6.59550 | -77.29906 | 17266 ft | 390 kts | 123° |
| 2026-05-04 15:54 | -6.61105 | -77.27667 | 17245 ft | 390 kts | 123° |
| 2026-05-04 15:54 | -6.62658 | -77.25430 | 17207 ft | 390 kts | 123° |
| 2026-05-04 15:54 | -6.64229 | -77.23170 | 17169 ft | 389 kts | 123° |
| 2026-05-04 15:55 | -6.65838 | -77.21017 | 17220 ft | 391 kts | 130° |
| 2026-05-04 15:55 | -6.67949 | -77.19245 | 17200 ft | 395 kts | 145° |
| 2026-05-04 15:55 | -6.70440 | -77.18054 | 17203 ft | 399 kts | 159° |
| 2026-05-04 15:55 | -6.73127 | -77.17319 | 17199 ft | 400 kts | 163° |
| 2026-05-04 15:56 | -6.75836 | -77.16650 | 17201 ft | 400 kts | 163° |
| 2026-05-04 15:56 | -6.78557 | -77.15980 | 17170 ft | 400 kts | 163° |
| 2026-05-04 15:56 | -6.81286 | -77.15304 | 17193 ft | 400 kts | 163° |
| 2026-05-04 15:56 | -6.83975 | -77.14629 | 17186 ft | 401 kts | 163° |
| 2026-05-04 15:57 | -6.86691 | -77.13944 | 17195 ft | 401 kts | 163° |
| 2026-05-04 15:57 | -6.89417 | -77.13254 | 17194 ft | 401 kts | 163° |
| 2026-05-04 15:57 | -6.92116 | -77.12572 | 17181 ft | 401 kts | 163° |
| 2026-05-04 15:57 | -6.94857 | -77.11877 | 17213 ft | 401 kts | 163° |
| 2026-05-04 15:58 | -6.97520 | -77.11047 | 17167 ft | 396 kts | 152° |
| 2026-05-04 15:58 | -6.99649 | -77.09434 | 17129 ft | 374 kts | 128° |
| 2026-05-04 15:58 | -7.00891 | -77.07237 | 17101 ft | 353 kts | 107° |
| 2026-05-04 15:58 | -7.01293 | -77.04824 | 17191 ft | 350 kts | 89° |
| 2026-05-04 15:59 | -7.00887 | -77.02422 | 17185 ft | 351 kts | 71° |
| 2026-05-04 15:59 | -6.99821 | -77.00206 | 17167 ft | 352 kts | 63° |
| 2026-05-04 15:59 | -6.98677 | -76.98057 | 17151 ft | 351 kts | 63° |
| 2026-05-04 15:59 | -6.97517 | -76.95870 | 17051 ft | 352 kts | 63° |
| 2026-05-04 16:00 | -6.96385 | -76.93722 | 16812 ft | 349 kts | 63° |
| 2026-05-04 16:00 | -6.95244 | -76.91548 | 16599 ft | 348 kts | 64° |
| 2026-05-04 16:00 | -6.94122 | -76.89401 | 16370 ft | 347 kts | 64° |
| 2026-05-04 16:00 | -6.93001 | -76.87253 | 16139 ft | 346 kts | 64° |
| 2026-05-04 16:01 | -6.91882 | -76.85107 | 15905 ft | 345 kts | 64° |
| 2026-05-04 16:01 | -6.90782 | -76.82995 | 15676 ft | 345 kts | 64° |
| 2026-05-04 16:01 | -6.89655 | -76.80831 | 15442 ft | 344 kts | 64° |
| 2026-05-04 16:01 | -6.88547 | -76.78706 | 15207 ft | 344 kts | 64° |
| 2026-05-04 16:02 | -6.87431 | -76.76562 | 14968 ft | 343 kts | 64° |
| 2026-05-04 16:02 | -6.86325 | -76.74440 | 14736 ft | 342 kts | 64° |
| 2026-05-04 16:02 | -6.84129 | -76.70225 | 14277 ft | 340 kts | 65° |
| 2026-05-04 16:03 | -6.83036 | -76.68127 | 14044 ft | 338 kts | 65° |
| 2026-05-04 16:03 | -6.81949 | -76.66040 | 13813 ft | 337 kts | 65° |
| 2026-05-04 16:03 | -6.80854 | -76.63938 | 13576 ft | 336 kts | 65° |
| 2026-05-04 16:03 | -6.79783 | -76.61855 | 13341 ft | 334 kts | 68° |
| 2026-05-04 16:04 | -6.79220 | -76.59630 | 13086 ft | 328 kts | 90° |
| 2026-05-04 16:04 | -6.80720 | -76.55455 | 12557 ft | 324 kts | 131° |
| 2026-05-04 16:04 | -6.82336 | -76.53881 | 12189 ft | 323 kts | 136° |
| 2026-05-04 16:05 | -6.83945 | -76.52324 | 11769 ft | 321 kts | 133° |
| 2026-05-04 16:05 | -6.85421 | -76.50652 | 11337 ft | 319 kts | 128° |
| 2026-05-04 16:05 | -6.87857 | -76.46982 | 10533 ft | 311 kts | 118° |
| 2026-05-04 16:06 | -6.88785 | -76.45062 | 10358 ft | 299 kts | 114° |
| 2026-05-04 16:06 | -6.90352 | -76.40018 | 9861 ft | 275 kts | 102° |
| 2026-05-04 16:07 | -6.90720 | -76.37479 | 9369 ft | 274 kts | 97° |
| 2026-05-04 16:07 | -6.89804 | -76.32025 | 8293 ft | 277 kts | 49° |
| 2026-05-04 16:08 | -6.88208 | -76.30924 | 7940 ft | 282 kts | 22° |
| 2026-05-04 16:08 | -6.82389 | -76.31533 | 6938 ft | 282 kts | 348° |
| 2026-05-04 16:09 | -6.78549 | -76.32359 | 6280 ft | 279 kts | 351° |
| 2026-05-04 16:09 | -6.74841 | -76.33044 | 6071 ft | 256 kts | 351° |
| 2026-05-04 16:10 | -6.71492 | -76.33642 | 5992 ft | 233 kts | 352° |
| 2026-05-04 16:11 | -6.67022 | -76.34439 | 5769 ft | 199 kts | 352° |
| 2026-05-04 16:11 | -6.65692 | -76.34678 | 5612 ft | 189 kts | 352° |
| 2026-05-04 16:12 | -6.62117 | -76.35317 | 4881 ft | 158 kts | 352° |
| 2026-05-04 16:12 | -6.58783 | -76.35899 | 3559 ft | 164 kts | 344° |
| 2026-05-04 16:13 | -6.56601 | -76.36423 | 2732 ft | 158 kts | 358° |
| 2026-05-04 16:13 | -6.54393 | -76.36666 | 1809 ft | 161 kts | 347° |
| 2026-05-04 16:14 | -6.52216 | -76.37089 | 981 ft | 155 kts | 353° |
| 2026-05-04 16:14 | -6.50523 | -76.37395 | 857 ft | 62 kts | 350° |
| 2026-05-04 16:15 | -6.49727 | -76.37495 | 877 ft | 11 kts | 301° |
| 2026-05-04 16:16 | -6.49864 | -76.37512 | 874 ft | 14 kts | 171° |
| 2026-05-04 16:16 | -6.50216 | -76.37450 | 867 ft | 20 kts | 170° |
| 2026-05-04 16:17 | -6.50519 | -76.37400 | 857 ft | 23 kts | 173° |
| 2026-05-04 16:18 | -6.50964 | -76.37264 | 842 ft | 19 kts | 123° |
| 2026-05-04 16:18 | -6.50977 | -76.37244 | 842 ft | 0 kts | 125° |
| 2026-05-04 16:19 | -6.50983 | -76.37236 | 841 ft | 3 kts | 125° |
| 2026-05-04 16:19 | -6.51034 | -76.37163 | 840 ft | 9 kts | 124° |
| 2026-05-04 16:20 | -6.51151 | -76.37015 | 836 ft | 2 kts | 112° |
| 2026-05-04 16:20 | -6.51156 | -76.36991 | 837 ft | 0 kts | 89° |